Aviation WX

[Source: ADDS]
METAR
KDUJ 290453Z AUTO 29005KT 10SM CLR 12/11 A3001 RMK AO2 SLP154 T01220106 402720122 =
TAF
KDUJ 290509Z 2905/2924 31004KT P6SM SCT050 =